createdAt,value
2022-10-02T13:57:20.532Z,74.30
2022-10-02T13:58:20.546Z,77.00
2022-10-02T13:59:23.717Z,76.10
2022-10-02T14:00:21.444Z,75.00
2022-10-02T14:01:20.496Z,75.80
2022-10-02T14:02:26.053Z,74.00
2022-10-02T14:03:22.848Z,73.90
2022-10-02T14:05:55.692Z,74.40
2022-10-02T14:06:45.334Z,74.70
2022-10-02T14:07:45.995Z,74.90
2022-10-02T14:09:02.569Z,73.80
2022-10-02T14:09:45.565Z,75.26
2022-10-02T14:24:30.755Z,73.76
2022-10-02T14:25:01.880Z,73.86
2022-10-02T14:26:03.788Z,73.96
2022-10-02T14:27:01.836Z,73.72
2022-10-02T14:28:03.890Z,72.53
2022-10-02T14:29:06.224Z,72.09
2022-10-02T14:30:02.510Z,70.59
2022-10-02T14:31:01.791Z,70.06
2022-10-02T14:32:03.229Z,69.02
2022-10-02T14:33:04.423Z,68.56
2022-10-02T14:34:05.737Z,68.19
2022-10-02T14:35:01.767Z,69.96
2022-10-02T14:36:08.449Z,71.26
2022-10-02T14:37:02.933Z,71.33
2022-10-02T14:38:04.382Z,69.59
2022-10-02T14:39:02.628Z,69.19
2022-10-02T14:40:01.629Z,69.26
2022-10-02T14:41:02.457Z,68.76
2022-10-02T14:42:01.630Z,68.26
2022-10-02T14:43:01.677Z,68.56
2022-10-02T14:44:01.619Z,68.76
2022-10-02T14:45:01.647Z,68.03
2022-10-02T14:46:01.611Z,67.69
2022-10-02T14:47:01.605Z,67.66
2022-10-02T14:48:01.629Z,67.46
2022-10-02T14:49:01.539Z,67.03
2022-10-02T14:50:01.601Z,67.26
2022-10-02T14:51:01.530Z,68.29
2022-10-02T14:52:01.534Z,69.26
2022-10-02T14:53:01.508Z,69.36
2022-10-02T14:54:01.509Z,69.16
2022-10-02T14:55:01.485Z,69.56
2022-10-02T14:56:02.034Z,69.43
2022-10-02T14:57:01.428Z,69.09
2022-10-02T14:58:01.449Z,68.13
2022-10-02T14:59:01.668Z,67.70
2022-10-02T15:00:01.439Z,66.77
2022-10-02T15:01:01.484Z,66.04
2022-10-02T15:02:01.364Z,65.11
2022-10-02T15:03:01.357Z,65.05
2022-10-02T15:04:01.457Z,65.84
2022-10-02T15:05:04.382Z,66.47
2022-10-02T15:06:01.368Z,65.97
2022-10-02T15:07:01.327Z,65.87
2022-10-02T15:08:01.307Z,66.30
2022-10-02T15:09:02.212Z,66.77
2022-10-02T15:10:01.310Z,65.94
2022-10-02T15:11:01.311Z,65.34
2022-10-02T15:12:01.263Z,65.41
2022-10-02T15:13:04.277Z,65.84
2022-10-02T15:14:01.249Z,65.84
2022-10-02T15:15:01.211Z,65.34
2022-10-02T15:16:01.812Z,66.07
2022-10-02T15:17:03.479Z,66.47
2022-10-02T15:18:01.177Z,66.17
2022-10-02T15:19:01.212Z,65.70
2022-10-02T15:20:01.310Z,67.03
2022-10-02T15:21:01.315Z,67.83
2022-10-02T15:22:01.191Z,67.73
2022-10-02T15:23:01.208Z,67.63
2022-10-02T15:24:01.120Z,67.03
2022-10-02T15:25:03.861Z,67.26
2022-10-02T15:26:01.615Z,67.86
2022-10-02T15:27:06.203Z,67.07
2022-10-02T15:28:12.309Z,66.86
2022-10-02T15:29:03.439Z,67.13
2022-10-02T15:30:01.123Z,66.80
2022-10-02T15:31:01.099Z,66.70
2022-10-02T15:32:01.142Z,66.50
2022-10-02T15:33:02.205Z,66.93
2022-10-02T15:34:01.032Z,67.66
2022-10-02T15:35:01.009Z,68.19
2022-10-02T15:36:01.014Z,67.99
2022-10-02T15:37:01.022Z,67.80
2022-10-02T15:38:02.055Z,67.46
2022-10-02T15:39:10.897Z,67.07
2022-10-02T15:40:01.036Z,66.53
2022-10-02T15:41:00.949Z,66.03
2022-10-02T15:42:00.982Z,66.63
2022-10-02T15:43:02.131Z,66.73
2022-10-02T15:44:00.926Z,66.43
2022-10-02T15:45:00.930Z,66.30
2022-10-02T15:46:00.984Z,64.78
2022-10-02T15:47:00.875Z,63.38
2022-10-02T15:48:00.829Z,62.95
2022-10-02T15:49:01.807Z,62.26
2022-10-02T15:50:02.556Z,62.05
2022-10-02T15:51:01.747Z,62.85
2022-10-02T15:52:03.413Z,63.21
2022-10-02T15:53:01.661Z,65.07
2022-10-02T15:54:00.787Z,65.37
2022-10-02T15:55:00.794Z,65.80
2022-10-02T15:56:00.885Z,66.83
2022-10-02T15:57:01.506Z,67.10
2022-10-02T15:58:00.749Z,66.09
2022-10-02T15:59:00.714Z,66.93
2022-10-02T16:00:01.540Z,67.60
2022-10-02T16:01:01.525Z,66.77
2022-10-02T16:02:00.765Z,65.44
2022-10-02T16:03:01.265Z,64.61
2022-10-02T16:04:00.677Z,65.34
2022-10-02T16:05:00.952Z,66.23
2022-10-02T16:06:01.482Z,67.26
2022-10-02T16:07:01.524Z,67.43
2022-10-02T16:08:02.720Z,67.60
2022-10-02T16:09:03.743Z,66.36
2022-10-02T16:10:00.689Z,67.66
2022-10-02T16:11:00.638Z,66.90
2022-10-02T16:12:01.364Z,66.17
2022-10-02T16:13:01.556Z,65.34
2022-10-02T16:14:00.533Z,64.54
2022-10-02T16:15:00.557Z,64.34
2022-10-02T16:16:00.569Z,64.78
2022-10-02T16:17:02.734Z,65.47
2022-10-02T16:18:00.539Z,65.64
2022-10-02T16:19:01.472Z,65.14
2022-10-02T16:20:00.551Z,64.81
2022-10-02T16:21:00.457Z,64.51
2022-10-02T16:22:00.906Z,64.48
2022-10-02T16:23:01.229Z,64.28
2022-10-02T16:24:00.436Z,63.19
2022-10-02T16:25:00.477Z,63.82
2022-10-02T16:26:00.456Z,63.49
2022-10-02T16:27:01.445Z,64.09
2022-10-02T16:28:00.567Z,63.72
2022-10-02T16:29:00.381Z,64.84
2022-10-02T16:30:02.140Z,65.05
2022-10-02T16:31:00.386Z,65.24
2022-10-02T16:32:01.332Z,65.34
2022-10-02T16:33:01.271Z,65.01
2022-10-02T16:34:00.349Z,64.51
2022-10-02T16:35:02.741Z,64.72
2022-10-02T16:36:03.325Z,64.64
2022-10-02T16:37:00.327Z,65.87
2022-10-02T16:38:00.320Z,65.47
2022-10-02T16:39:00.301Z,66.30
2022-10-02T16:40:00.385Z,66.63
2022-10-02T16:41:00.296Z,67.26
2022-10-02T16:42:00.206Z,67.96
2022-10-02T16:43:01.456Z,67.73
2022-10-02T16:44:00.211Z,66.80
2022-10-02T16:45:00.244Z,66.07
2022-10-02T16:46:00.297Z,65.67
2022-10-02T16:47:00.194Z,65.57
2022-10-02T16:48:01.021Z,65.34
2022-10-02T16:49:02.216Z,65.71
2022-10-02T16:50:00.370Z,65.31
2022-10-02T16:51:00.166Z,65.08
2022-10-02T16:52:00.888Z,63.98
2022-10-02T16:53:01.612Z,63.76
2022-10-02T16:54:00.151Z,64.55
2022-10-02T16:55:00.113Z,64.25
2022-10-02T16:56:02.884Z,65.02
2022-10-02T16:57:00.990Z,63.63
2022-10-02T16:58:00.086Z,63.33
2022-10-02T16:59:01.692Z,63.92
2022-10-02T17:00:00.192Z,64.52
2022-10-02T17:01:00.124Z,64.32
2022-10-02T17:02:16.882Z,63.66
2022-10-02T17:03:00.133Z,64.06
2022-10-02T17:04:00.052Z,64.12
2022-10-02T17:05:00.026Z,63.82
2022-10-02T17:06:00.731Z,63.43
2022-10-02T17:06:59.971Z,62.83
2022-10-02T17:07:59.966Z,62.70
2022-10-02T17:08:59.995Z,62.70
2022-10-02T17:09:59.997Z,62.93
2022-10-02T17:11:00.955Z,64.22
2022-10-02T17:12:00.222Z,65.64
2022-10-02T17:13:00.453Z,65.54
2022-10-02T17:13:59.907Z,65.81
2022-10-02T17:14:59.921Z,66.41
2022-10-02T17:15:59.941Z,66.31
2022-10-02T17:17:00.418Z,66.41
2022-10-02T17:17:59.846Z,65.68
2022-10-02T17:18:59.824Z,65.18
2022-10-02T17:20:00.759Z,65.71
2022-10-02T17:20:59.824Z,66.44
2022-10-02T17:22:02.397Z,66.83
2022-10-02T17:22:59.845Z,67.33
2022-10-02T17:23:59.820Z,67.54
2022-10-02T17:24:59.768Z,66.94
2022-10-02T17:25:59.801Z,66.83
2022-10-02T17:27:00.357Z,66.41
2022-10-02T17:28:02.088Z,65.48
2022-10-02T17:29:01.506Z,66.53
2022-10-02T17:29:59.724Z,67.03
2022-10-02T17:30:59.689Z,67.57
2022-10-02T17:31:59.675Z,68.49
2022-10-02T17:33:04.309Z,68.90
2022-10-02T17:33:59.659Z,68.90
2022-10-02T17:35:00.636Z,69.76
2022-10-02T17:35:59.643Z,70.36
2022-10-02T17:36:59.609Z,70.89
2022-10-02T17:38:00.015Z,71.29
2022-10-02T17:39:00.287Z,71.36
2022-10-02T17:40:01.031Z,71.26
2022-10-02T17:40:59.644Z,70.36
2022-10-02T17:41:59.552Z,70.12
2022-10-02T17:42:59.560Z,70.19
2022-10-02T17:44:00.491Z,69.29
2022-10-02T17:45:03.197Z,70.26
2022-10-02T17:45:59.536Z,71.15
2022-10-02T17:47:00.227Z,70.92
2022-10-02T17:48:00.229Z,69.69
2022-10-02T17:49:00.706Z,68.99
2022-10-02T17:49:59.503Z,69.20
2022-10-02T17:50:59.450Z,70.03
2022-10-02T17:52:00.488Z,69.59
2022-10-02T17:52:59.470Z,69.09
2022-10-02T17:54:03.552Z,69.62
2022-10-02T17:55:00.296Z,69.92
2022-10-02T17:55:59.420Z,70.32
2022-10-02T17:56:59.386Z,70.42
2022-10-02T17:57:59.982Z,69.99
2022-10-02T17:58:59.474Z,69.36
2022-10-02T18:00:03.718Z,68.66
2022-10-02T18:00:59.436Z,68.56
2022-10-02T18:01:59.406Z,69.20
2022-10-02T18:02:59.368Z,69.23
2022-10-02T18:03:59.340Z,70.89
2022-10-02T18:04:59.334Z,71.72
2022-10-02T18:06:00.104Z,71.62
2022-10-02T18:07:06.112Z,72.02
2022-10-02T18:07:59.362Z,71.72
2022-10-02T18:09:00.245Z,72.13
2022-10-02T18:10:03.804Z,72.22
2022-10-02T18:10:59.305Z,72.52
2022-10-02T18:11:59.371Z,72.62
2022-10-02T18:13:00.430Z,73.56
2022-10-02T18:14:01.893Z,73.25
2022-10-02T18:15:03.126Z,73.56
2022-10-02T18:16:00.001Z,73.25
2022-10-02T18:16:59.563Z,73.06
2022-10-02T18:18:08.133Z,72.72
2022-10-02T18:19:02.049Z,72.22
2022-10-02T18:20:01.766Z,71.79
2022-10-02T18:20:59.915Z,71.49
2022-10-02T18:22:00.181Z,71.39
2022-10-02T18:23:00.300Z,70.76
2022-10-02T18:24:00.289Z,71.19
2022-10-02T18:24:59.418Z,71.19
2022-10-02T18:26:03.315Z,70.99
2022-10-02T18:27:00.124Z,71.19
2022-10-02T18:28:04.969Z,71.69
2022-10-02T18:29:00.955Z,71.79
2022-10-02T18:30:02.415Z,71.99
2022-10-02T18:31:01.891Z,71.99
2022-10-02T18:32:04.414Z,72.52
2022-10-02T18:33:02.765Z,72.29
2022-10-02T18:34:02.319Z,72.09
2022-10-02T18:35:05.479Z,72.32
2022-10-02T18:36:03.298Z,73.46
2022-10-02T18:37:01.957Z,73.02
2022-10-02T18:37:59.885Z,72.86
2022-10-02T18:38:59.040Z,73.06
2022-10-02T18:40:06.580Z,73.36
2022-10-02T18:41:01.560Z,73.66
2022-10-02T18:42:06.481Z,73.75
2022-10-02T18:43:00.413Z,74.19
2022-10-02T18:43:57.833Z,74.39
2022-10-02T18:44:59.659Z,74.83
2022-10-02T18:46:01.804Z,74.53
2022-10-02T18:47:01.523Z,74.63
2022-10-02T18:48:00.649Z,74.53
2022-10-02T18:48:59.692Z,74.83
2022-10-02T18:49:58.862Z,75.52
2022-10-02T18:50:59.525Z,75.23
